Time;durP1;ratioP1;P1;durP2;ratioP2;P2;SDS_P1;SDS_P2;PMS_P1;PMS_P2;Temp;Humidity;BMP_temperature;BMP_pressure;BME280_temperature;BME280_humidity;BME280_pressure;Samples;Min_cycle;Max_cycle;Signal;HPM_P1;HPM_P2
2020/12/08 00:00:20;;;;;;;29.67;15.10;;;0.00;94.10;;;;;;4916987;28;20027;-83
2020/12/08 00:02:46;;;;;;;28.52;14.63;;;0.00;94.10;;;;;;4919850;28;20041;-84
2020/12/08 00:05:13;;;;;;;27.65;15.02;;;0.00;94.10;;;;;;4918904;28;20027;-84
2020/12/08 00:07:38;;;;;;;21.27;11.93;;;0.10;94.20;;;;;;4935076;28;20550;-83
2020/12/08 00:10:04;;;;;;;28.67;13.93;;;0.20;94.20;;;;;;4944791;28;20870;-83
2020/12/08 00:12:30;;;;;;;22.73;14.35;;;0.10;93.80;;;;;;4942634;28;20105;-84
2020/12/08 00:14:55;;;;;;;20.02;12.88;;;0.00;93.80;;;;;;4949942;28;20042;-84
2020/12/08 00:17:21;;;;;;;22.08;12.18;;;-0.10;93.80;;;;;;4942778;28;20391;-84
2020/12/08 00:19:49;;;;;;;22.85;13.32;;;-0.20;93.80;;;;;;4920585;28;20033;-84
2020/12/08 00:22:21;;;;;;;19.65;12.13;;;-0.10;93.90;;;;;;4959888;28;20035;-84
2020/12/08 00:24:46;;;;;;;22.50;12.48;;;-0.10;93.90;;;;;;4935741;28;20142;-84
2020/12/08 00:27:12;;;;;;;21.65;12.55;;;-0.10;93.80;;;;;;4931645;28;20142;-84
2020/12/08 00:29:39;;;;;;;18.95;12.00;;;-0.20;93.70;;;;;;4917791;28;20092;-84
2020/12/08 00:32:05;;;;;;;24.33;12.75;;;-0.20;93.70;;;;;;4918108;28;20039;-84
2020/12/08 00:34:30;;;;;;;20.48;12.32;;;-0.10;93.80;;;;;;4943755;28;20522;-84
2020/12/08 00:36:56;;;;;;;18.50;11.13;;;-0.20;93.70;;;;;;4944448;28;20069;-83
2020/12/08 00:39:22;;;;;;;22.92;13.40;;;0.00;94.00;;;;;;4918687;28;20034;-83
2020/12/08 00:41:48;;;;;;;21.17;11.73;;;0.00;93.90;;;;;;4920847;28;20042;-84
2020/12/08 00:44:13;;;;;;;19.13;11.68;;;-0.10;93.50;;;;;;4917482;28;20027;-84
2020/12/08 00:46:39;;;;;;;24.65;12.98;;;-0.10;93.80;;;;;;4930103;28;20035;-83
2020/12/08 00:49:06;;;;;;;21.35;12.73;;;0.00;93.90;;;;;;4952720;28;20154;-83
2020/12/08 00:51:31;;;;;;;24.85;13.30;;;-0.10;93.80;;;;;;4946382;28;20042;-83
2020/12/08 00:53:57;;;;;;;26.67;14.25;;;-0.10;93.70;;;;;;4962148;28;20027;-84
2020/12/08 00:56:22;;;;;;;25.70;13.93;;;0.00;93.80;;;;;;4918489;28;20026;-84
2020/12/08 00:58:48;;;;;;;27.90;14.75;;;-0.10;93.90;;;;;;4960071;28;20042;-83
2020/12/08 01:01:13;;;;;;;25.23;14.65;;;0.00;93.90;;;;;;4930563;28;20039;-84
2020/12/08 01:03:39;;;;;;;22.58;14.15;;;0.00;94.00;;;;;;4933488;28;20031;-84
2020/12/08 01:06:08;;;;;;;28.35;15.18;;;0.10;93.70;;;;;;4947731;28;20042;-84
2020/12/08 01:08:33;;;;;;;27.70;15.00;;;0.10;93.70;;;;;;4917481;28;20047;-84
2020/12/08 01:10:59;;;;;;;24.42;14.15;;;0.00;93.90;;;;;;4941608;28;20041;-84
2020/12/08 01:13:24;;;;;;;27.33;15.10;;;-0.10;93.80;;;;;;4930425;28;20031;-84
2020/12/08 01:15:50;;;;;;;27.02;13.35;;;-0.20;93.40;;;;;;4914687;28;20046;-84
2020/12/08 01:18:15;;;;;;;27.25;13.93;;;-0.10;93.90;;;;;;4916294;28;20034;-84
2020/12/08 01:20:41;;;;;;;22.88;14.43;;;-0.10;93.90;;;;;;4930078;28;20395;-83
2020/12/08 01:23:07;;;;;;;30.10;16.30;;;-0.10;93.80;;;;;;4931288;28;20158;-84
2020/12/08 01:25:33;;;;;;;25.38;13.75;;;-0.10;94.00;;;;;;4962219;28;20042;-83
2020/12/08 01:27:59;;;;;;;24.40;13.65;;;-0.10;93.80;;;;;;4943343;28;20042;-84
2020/12/08 01:30:24;;;;;;;28.23;14.77;;;-0.10;93.90;;;;;;4933967;28;20050;-84
2020/12/08 01:32:50;;;;;;;28.85;14.13;;;-0.20;93.50;;;;;;4929920;28;20043;-84
2020/12/08 01:35:17;;;;;;;26.38;14.57;;;-0.20;93.70;;;;;;4914681;28;20031;-84
2020/12/08 01:37:46;;;;;;;30.05;15.27;;;-0.30;93.50;;;;;;4920560;28;20042;-83
2020/12/08 01:40:12;;;;;;;31.70;14.40;;;-0.30;93.90;;;;;;4933181;28;20387;-83
2020/12/08 01:42:37;;;;;;;24.77;14.05;;;-0.20;94.10;;;;;;4932434;28;20329;-84
2020/12/08 01:45:04;;;;;;;25.67;14.73;;;-0.20;94.10;;;;;;4955669;28;20453;-84
2020/12/08 01:47:29;;;;;;;25.13;13.68;;;-0.20;93.90;;;;;;4943122;28;20026;-84
2020/12/08 01:49:55;;;;;;;26.65;14.32;;;-0.30;93.90;;;;;;4927155;28;20133;-84
2020/12/08 01:52:20;;;;;;;22.75;12.57;;;-0.20;93.90;;;;;;4947232;28;20034;-84
2020/12/08 01:54:46;;;;;;;23.15;12.43;;;0.10;94.30;;;;;;4933799;28;20415;-84
2020/12/08 01:57:12;;;;;;;22.25;14.13;;;0.10;94.00;;;;;;4945660;28;20041;-84
2020/12/08 01:59:38;;;;;;;21.38;12.52;;;0.10;93.80;;;;;;4945235;28;20026;-84
2020/12/08 02:02:03;;;;;;;26.13;15.32;;;0.10;94.10;;;;;;4943689;28;20501;-84
2020/12/08 02:04:29;;;;;;;26.70;15.75;;;-0.10;93.60;;;;;;4938673;28;20038;-84
2020/12/08 02:06:55;;;;;;;27.42;14.65;;;-0.30;93.70;;;;;;4915167;28;20038;-84
2020/12/08 02:09:20;;;;;;;26.15;15.38;;;-0.40;93.80;;;;;;4915022;28;20026;-84
2020/12/08 02:11:46;;;;;;;29.27;14.13;;;-0.50;93.60;;;;;;4934038;28;20105;-84
2020/12/08 02:14:12;;;;;;;26.90;16.67;;;-0.50;93.80;;;;;;4930567;28;20042;-84
2020/12/08 02:16:37;;;;;;;33.97;16.35;;;-0.60;93.60;;;;;;4930398;28;20027;-84
2020/12/08 02:19:03;;;;;;;30.85;16.10;;;-0.70;93.70;;;;;;4945342;28;20026;-84
2020/12/08 02:21:31;;;;;;;29.88;16.42;;;-0.50;94.10;;;;;;4931641;28;20035;-84
2020/12/08 02:23:56;;;;;;;31.00;16.40;;;-0.40;94.00;;;;;;4945061;28;20125;-84
2020/12/08 02:26:22;;;;;;;30.60;15.70;;;-0.50;93.90;;;;;;4916844;28;20110;-84
2020/12/08 02:28:47;;;;;;;25.38;14.07;;;-0.50;93.70;;;;;;4916409;28;20037;-84
2020/12/08 02:31:13;;;;;;;27.50;14.57;;;-0.50;93.90;;;;;;4933947;28;20023;-83
2020/12/08 02:33:38;;;;;;;28.10;15.70;;;-0.30;94.20;;;;;;4933814;28;20027;-84
2020/12/08 02:36:04;;;;;;;27.58;15.27;;;-0.30;93.90;;;;;;4938801;28;20530;-84
2020/12/08 02:38:29;;;;;;;28.85;16.05;;;-0.50;93.40;;;;;;4930198;28;20030;-84
2020/12/08 02:40:55;;;;;;;32.03;16.77;;;-0.80;93.00;;;;;;4941788;28;20034;-84
2020/12/08 02:43:21;;;;;;;25.90;14.80;;;-0.80;93.30;;;;;;4930665;28;20034;-83
2020/12/08 02:45:47;;;;;;;28.38;15.18;;;-0.80;93.70;;;;;;4931732;28;20078;-83
2020/12/08 02:48:13;;;;;;;29.67;17.27;;;-0.90;93.50;;;;;;4942069;28;20479;-84
2020/12/08 02:50:38;;;;;;;27.92;15.13;;;-1.00;93.50;;;;;;4917433;28;20038;-84
2020/12/08 02:53:04;;;;;;;25.42;15.13;;;-0.90;93.60;;;;;;4944587;28;20030;-84
2020/12/08 02:55:30;;;;;;;29.23;15.63;;;-0.90;93.90;;;;;;4950169;28;20391;-85
2020/12/08 02:57:55;;;;;;;30.58;16.67;;;-0.80;93.90;;;;;;4913296;28;20032;-84
2020/12/08 03:00:21;;;;;;;34.35;16.35;;;-0.80;94.00;;;;;;4928333;28;20394;-85
2020/12/08 03:02:46;;;;;;;30.30;16.13;;;-0.70;93.90;;;;;;4915070;28;20033;-85
2020/12/08 03:05:12;;;;;;;38.20;18.15;;;-0.70;94.00;;;;;;4914845;28;20202;-85
2020/12/08 03:07:38;;;;;;;36.28;17.33;;;-0.60;94.10;;;;;;4912977;28;20062;-83
2020/12/08 03:10:05;;;;;;;31.20;16.48;;;-0.50;94.10;;;;;;4940468;28;20047;-83
2020/12/08 03:12:31;;;;;;;34.70;17.15;;;-0.50;94.10;;;;;;4940077;28;20041;-84
2020/12/08 03:14:56;;;;;;;30.83;16.63;;;-0.50;94.20;;;;;;4946044;28;20069;-84
2020/12/08 03:17:22;;;;;;;28.55;16.48;;;-0.50;94.20;;;;;;4941202;28;20034;-83
2020/12/08 03:19:49;;;;;;;33.30;17.08;;;-0.50;94.20;;;;;;4915481;28;20030;-84
2020/12/08 03:22:15;;;;;;;31.67;16.40;;;-0.40;94.40;;;;;;4930651;28;20031;-82
2020/12/08 03:24:40;;;;;;;31.63;16.88;;;-0.40;94.20;;;;;;4936146;28;20031;-84
2020/12/08 03:27:06;;;;;;;35.38;17.35;;;-0.40;94.30;;;;;;4945814;28;20042;-84
2020/12/08 03:29:31;;;;;;;34.05;16.98;;;-0.40;94.20;;;;;;4933976;28;20478;-84
2020/12/08 03:31:57;;;;;;;30.10;15.65;;;-0.40;94.10;;;;;;4947329;28;20031;-84
2020/12/08 03:34:22;;;;;;;34.55;17.05;;;-0.40;94.20;;;;;;4917639;28;20037;-83
2020/12/08 03:36:48;;;;;;;32.58;16.35;;;-0.30;94.20;;;;;;4922961;28;20511;-84
2020/12/08 03:39:16;;;;;;;29.00;15.55;;;-0.40;94.10;;;;;;4938587;28;20057;-85
2020/12/08 03:41:42;;;;;;;31.92;16.52;;;-0.40;94.30;;;;;;4927755;28;20038;-84
2020/12/08 03:44:07;;;;;;;31.00;16.83;;;-0.50;94.00;;;;;;4944020;28;20039;-85
2020/12/08 03:46:33;;;;;;;32.35;17.13;;;-0.50;94.10;;;;;;4932718;28;20426;-85
2020/12/08 03:48:58;;;;;;;34.85;17.50;;;-0.60;94.00;;;;;;4932424;28;20047;-85
2020/12/08 03:51:24;;;;;;;28.00;16.45;;;-0.60;94.10;;;;;;4933264;28;20037;-85
2020/12/08 03:53:49;;;;;;;41.35;17.17;;;-0.70;93.80;;;;;;4929800;28;20039;-85
2020/12/08 03:56:17;;;;;;;33.25;17.67;;;-0.60;94.20;;;;;;4917237;28;20034;-84
2020/12/08 03:58:42;;;;;;;32.20;17.27;;;-0.60;93.80;;;;;;4933731;28;20031;-85
2020/12/08 04:01:21;;;;;;;37.00;18.20;;;-0.60;94.10;;;;;;4917734;28;20042;-85
2020/12/08 04:03:48;;;;;;;34.42;17.38;;;-0.50;94.20;;;;;;4951440;28;20046;-84
2020/12/08 04:06:13;;;;;;;33.97;16.73;;;-0.60;93.80;;;;;;4934533;28;20031;-84
2020/12/08 04:08:42;;;;;;;33.05;15.35;;;-0.70;93.70;;;;;;4915874;28;20414;-84
2020/12/08 04:11:11;;;;;;;35.90;17.95;;;-0.60;94.20;;;;;;4938784;28;20065;-85
2020/12/08 04:13:37;;;;;;;34.40;17.75;;;-0.50;94.10;;;;;;4934935;28;20117;-85
2020/12/08 04:16:03;;;;;;;33.88;17.92;;;-0.60;93.80;;;;;;4945828;28;20125;-86
2020/12/08 04:18:28;;;;;;;35.10;17.30;;;-0.70;93.80;;;;;;4932424;28;20469;-85
2020/12/08 04:20:54;;;;;;;37.28;17.92;;;-0.70;93.80;;;;;;4949090;28;20077;-85
2020/12/08 04:23:19;;;;;;;35.67;18.02;;;-0.60;94.20;;;;;;4946032;28;20031;-85
2020/12/08 04:25:46;;;;;;;39.63;17.20;;;-0.70;94.10;;;;;;4935598;28;20446;-85
2020/12/08 04:28:11;;;;;;;36.50;18.30;;;-0.60;94.30;;;;;;4963122;28;20034;-86
2020/12/08 04:30:37;;;;;;;40.47;18.60;;;-0.60;94.20;;;;;;4955929;28;20039;-85
2020/12/08 04:33:03;;;;;;;35.08;17.85;;;-0.50;94.20;;;;;;4928891;28;20027;-85
2020/12/08 04:35:29;;;;;;;37.08;16.90;;;-0.50;94.20;;;;;;4941538;28;20034;-85
2020/12/08 04:37:54;;;;;;;34.88;18.50;;;-0.40;94.30;;;;;;4915019;28;21157;-85
2020/12/08 04:40:20;;;;;;;36.65;18.02;;;-0.20;94.30;;;;;;4916849;28;20031;-85
2020/12/08 04:42:46;;;;;;;42.03;19.35;;;-0.30;94.20;;;;;;4919745;28;20383;-85
2020/12/08 04:45:12;;;;;;;25.98;13.07;;;-0.30;94.20;;;;;;4932038;28;20407;-86
2020/12/08 04:47:39;;;;;;;27.70;14.23;;;-0.20;94.40;;;;;;4936663;28;20067;-86
2020/12/08 04:50:04;;;;;;;34.67;17.45;;;0.00;94.40;;;;;;4942850;28;20038;-86
2020/12/08 04:52:30;;;;;;;37.13;17.88;;;0.10;94.40;;;;;;4942760;28;20038;-86
2020/12/08 04:54:56;;;;;;;36.22;17.73;;;-0.10;94.00;;;;;;4957336;28;20026;-86
2020/12/08 04:57:23;;;;;;;38.00;18.02;;;-0.20;94.00;;;;;;4949123;28;20037;-86
2020/12/08 04:59:48;;;;;;;40.40;19.90;;;-0.10;94.30;;;;;;4917348;28;20070;-85
2020/12/08 05:02:14;;;;;;;38.25;19.17;;;-0.10;94.40;;;;;;4932692;28;20471;-85
2020/12/08 05:04:39;;;;;;;33.50;17.40;;;0.00;94.40;;;;;;4935096;28;20049;-86
2020/12/08 05:07:06;;;;;;;39.08;17.70;;;0.10;94.40;;;;;;4946492;28;20134;-85
2020/12/08 05:09:32;;;;;;;40.92;18.40;;;0.10;94.30;;;;;;4942416;28;20054;-84
2020/12/08 05:12:01;;;;;;;29.05;15.82;;;0.20;94.30;;;;;;4955977;28;20035;-84
2020/12/08 05:14:26;;;;;;;42.95;21.15;;;0.30;94.50;;;;;;4936552;28;20484;-84
2020/12/08 05:17:04;;;;;;;35.15;19.13;;;0.30;93.90;;;;;;4946767;28;20125;-84
2020/12/08 05:19:30;;;;;;;43.38;20.45;;;0.20;94.20;;;;;;4932171;28;20023;-84
2020/12/08 05:21:55;;;;;;;44.58;20.98;;;0.20;94.40;;;;;;4947328;28;20109;-85
2020/12/08 05:24:31;;;;;;;42.50;19.00;;;0.30;94.50;;;;;;4941461;28;20118;-85
2020/12/08 05:27:03;;;;;;;39.58;18.45;;;0.30;94.50;;;;;;4930927;28;20059;-86
2020/12/08 05:29:29;;;;;;;44.70;20.60;;;0.40;94.40;;;;;;4934558;28;20038;-85
2020/12/08 05:31:55;;;;;;;40.53;19.85;;;0.40;94.40;;;;;;4937433;28;20495;-85
2020/12/08 05:34:21;;;;;;;39.85;20.08;;;0.30;94.40;;;;;;4930754;28;20041;-85
2020/12/08 05:36:49;;;;;;;38.63;19.38;;;0.40;94.40;;;;;;4915368;28;20122;-86
2020/12/08 05:39:20;;;;;;;38.65;19.90;;;0.40;94.40;;;;;;4937418;28;20116;-84
2020/12/08 05:41:46;;;;;;;46.83;21.52;;;0.50;94.40;;;;;;4931397;28;20031;-84
2020/12/08 05:44:18;;;;;;;42.70;19.50;;;0.40;94.30;;;;;;4913440;28;20046;-84
2020/12/08 05:46:44;;;;;;;36.78;19.70;;;0.40;94.60;;;;;;4928709;28;20031;-84
2020/12/08 05:49:11;;;;;;;40.58;20.90;;;0.40;94.50;;;;;;4941422;28;20041;-85
2020/12/08 05:51:40;;;;;;;43.17;20.80;;;0.40;94.60;;;;;;4929938;28;20066;-84
2020/12/08 05:54:06;;;;;;;43.38;19.25;;;0.40;94.60;;;;;;4931865;28;20069;-84
2020/12/08 05:56:34;;;;;;;47.60;23.45;;;0.50;94.80;;;;;;4937083;28;20050;-83
2020/12/08 05:59:00;;;;;;;45.35;22.40;;;0.60;94.70;;;;;;4915387;28;20039;-83
2020/12/08 06:01:26;;;;;;;39.22;20.05;;;0.60;94.60;;;;;;4938110;28;20035;-83
2020/12/08 06:03:54;;;;;;;48.78;21.88;;;0.50;94.60;;;;;;4938173;28;20058;-84
2020/12/08 06:06:20;;;;;;;45.42;22.10;;;0.50;94.60;;;;;;4946618;28;20332;-84
2020/12/08 06:08:46;;;;;;;48.35;21.48;;;0.50;94.60;;;;;;4916231;28;20046;-84
2020/12/08 06:11:15;;;;;;;52.55;21.55;;;0.50;94.70;;;;;;4967507;28;20042;-84
2020/12/08 06:13:45;;;;;;;51.13;22.90;;;0.60;94.70;;;;;;4960789;28;20507;-84
2020/12/08 06:16:15;;;;;;;52.40;24.13;;;0.60;94.70;;;;;;4961296;28;20045;-83
2020/12/08 06:18:40;;;;;;;49.30;22.85;;;0.70;94.70;;;;;;4941738;28;20062;-83
2020/12/08 06:21:27;;;;;;;49.08;23.23;;;0.60;94.50;;;;;;4941618;28;20451;-83
2020/12/08 06:23:54;;;;;;;58.40;23.08;;;0.60;94.60;;;;;;4939986;28;20078;-84
2020/12/08 06:26:34;;;;;;;53.03;24.15;;;0.60;94.70;;;;;;4929929;28;20046;-84
2020/12/08 06:29:06;;;;;;;50.40;22.85;;;0.70;94.70;;;;;;4933411;28;20043;-84
2020/12/08 06:31:42;;;;;;;56.35;25.33;;;0.70;94.70;;;;;;4928837;28;20118;-83
2020/12/08 06:34:08;;;;;;;46.17;21.60;;;0.60;94.50;;;;;;4936514;28;20391;-84
2020/12/08 06:36:34;;;;;;;56.50;23.65;;;0.60;94.40;;;;;;4928824;28;20042;-83
2020/12/08 06:39:00;;;;;;;50.53;21.73;;;0.60;94.50;;;;;;4939617;28;20027;-83
2020/12/08 06:41:29;;;;;;;46.03;20.17;;;0.70;94.60;;;;;;4927111;28;20033;-83
2020/12/08 06:43:55;;;;;;;49.88;22.52;;;0.70;94.60;;;;;;4932684;28;20426;-83
2020/12/08 06:46:22;;;;;;;47.63;22.13;;;0.80;94.40;;;;;;4946515;28;20314;-83
2020/12/08 06:49:01;;;;;;;46.67;22.55;;;0.70;94.20;;;;;;4924005;28;20054;-83
2020/12/08 06:51:27;;;;;;;52.25;24.92;;;0.70;94.40;;;;;;4937174;28;20031;-83
2020/12/08 06:53:53;;;;;;;47.90;23.02;;;0.70;94.50;;;;;;4960082;28;20043;-83
2020/12/08 06:56:32;;;;;;;44.33;22.48;;;0.70;94.60;;;;;;4912398;28;20483;-83
2020/12/08 06:58:57;;;;;;;58.40;23.88;;;0.70;94.50;;;;;;4933052;28;20694;-84
2020/12/08 07:01:24;;;;;;;56.00;20.90;;;0.70;94.50;;;;;;4914592;28;20026;-83
2020/12/08 07:03:49;;;;;;;47.10;21.08;;;0.70;94.50;;;;;;4930971;28;20068;-83
2020/12/08 07:06:15;;;;;;;54.00;23.98;;;0.80;94.60;;;;;;4944371;28;20482;-83
2020/12/08 07:08:45;;;;;;;56.67;25.20;;;0.70;94.50;;;;;;4959965;28;20585;-84
2020/12/08 07:11:23;;;;;;;55.10;24.50;;;0.70;94.60;;;;;;4936879;28;20027;-83
2020/12/08 07:13:59;;;;;;;51.13;23.40;;;0.80;94.70;;;;;;4945119;28;20030;-84
2020/12/08 07:16:26;;;;;;;50.75;23.67;;;0.80;94.60;;;;;;4925811;28;20023;-84
2020/12/08 07:18:53;;;;;;;52.47;23.17;;;0.90;94.70;;;;;;4912489;29;20043;-85
2020/12/08 07:21:19;;;;;;;59.95;25.10;;;0.80;94.50;;;;;;4935563;28;20038;-84
2020/12/08 07:23:45;;;;;;;56.28;25.02;;;0.90;94.60;;;;;;4927590;28;20095;-84
2020/12/08 07:26:12;;;;;;;69.47;26.30;;;0.90;94.60;;;;;;4912263;28;20035;-84
2020/12/08 07:28:37;;;;;;;56.72;24.48;;;0.90;94.60;;;;;;4931644;28;20065;-85
2020/12/08 07:31:03;;;;;;;58.28;25.90;;;1.00;94.50;;;;;;4917694;28;20483;-84
2020/12/08 07:33:31;;;;;;;63.55;24.95;;;0.90;94.50;;;;;;4937064;28;20030;-86
2020/12/08 07:35:57;;;;;;;53.25;22.27;;;0.90;94.50;;;;;;4941866;28;20137;-84
2020/12/08 07:38:23;;;;;;;54.83;22.88;;;0.90;94.50;;;;;;4915072;28;20041;-83
2020/12/08 07:40:48;;;;;;;37.25;19.38;;;1.00;94.60;;;;;;4941312;28;20467;-85
2020/12/08 07:43:14;;;;;;;32.85;17.40;;;1.10;94.40;;;;;;4908752;28;20054;-84
2020/12/08 07:45:46;;;;;;;30.15;17.73;;;1.20;94.10;;;;;;4917746;28;20034;-84
2020/12/08 07:48:19;;;;;;;27.25;15.35;;;1.30;94.00;;;;;;4954490;28;20082;-85
2020/12/08 07:50:44;;;;;;;29.55;15.23;;;1.40;94.20;;;;;;4931357;28;20039;-84
2020/12/08 07:53:10;;;;;;;28.85;13.68;;;1.40;94.40;;;;;;4944596;28;20054;-84
2020/12/08 07:55:43;;;;;;;29.65;13.60;;;1.40;94.10;;;;;;4954158;28;20110;-85
2020/12/08 07:58:08;;;;;;;23.52;12.13;;;1.50;94.20;;;;;;4909208;28;20028;-84
2020/12/08 08:00:34;;;;;;;32.97;14.98;;;1.50;94.20;;;;;;4928400;28;20110;-84
2020/12/08 08:02:59;;;;;;;29.23;16.02;;;1.60;94.30;;;;;;4925007;28;20040;-84
2020/12/08 08:05:25;;;;;;;35.13;18.02;;;1.60;94.30;;;;;;4913538;28;20483;-85
2020/12/08 08:07:51;;;;;;;31.90;16.63;;;1.60;94.30;;;;;;4929594;28;20119;-84
2020/12/08 08:10:16;;;;;;;32.75;17.33;;;1.70;94.40;;;;;;4916935;28;20031;-85
2020/12/08 08:12:42;;;;;;;30.25;15.00;;;1.80;94.30;;;;;;4935743;28;20118;-85
2020/12/08 08:15:08;;;;;;;31.65;15.90;;;1.90;94.10;;;;;;4941615;28;20410;-85
2020/12/08 08:17:34;;;;;;;27.98;15.43;;;1.90;94.10;;;;;;4933150;28;20046;-85
2020/12/08 08:19:59;;;;;;;30.30;15.50;;;1.90;94.00;;;;;;4914369;28;20117;-84
2020/12/08 08:22:25;;;;;;;29.77;15.95;;;2.00;94.10;;;;;;4916771;28;20062;-85
2020/12/08 08:24:51;;;;;;;29.50;15.15;;;2.00;94.20;;;;;;4930943;28;20475;-84
2020/12/08 08:27:16;;;;;;;32.40;15.98;;;2.00;94.20;;;;;;4930063;28;20519;-85
2020/12/08 08:29:42;;;;;;;31.85;16.48;;;2.10;94.10;;;;;;4937019;28;20046;-85
2020/12/08 08:32:07;;;;;;;28.00;16.60;;;2.10;94.20;;;;;;4938928;28;20035;-84
2020/12/08 08:34:33;;;;;;;32.60;16.40;;;2.20;93.90;;;;;;4933707;28;20069;-85
2020/12/08 08:36:59;;;;;;;30.70;15.55;;;2.20;94.20;;;;;;4946869;28;20045;-84
2020/12/08 08:39:25;;;;;;;28.92;15.20;;;2.30;93.90;;;;;;4931151;28;20045;-84
2020/12/08 08:41:52;;;;;;;26.65;13.43;;;2.40;93.70;;;;;;4931868;28;20384;-84
2020/12/08 08:44:17;;;;;;;24.33;13.38;;;2.30;94.10;;;;;;4927375;28;20039;-84
2020/12/08 08:46:43;;;;;;;26.95;15.25;;;2.40;93.80;;;;;;4931494;28;20042;-85
2020/12/08 08:49:14;;;;;;;23.58;14.30;;;2.40;94.10;;;;;;4962235;28;20129;-85
2020/12/08 08:51:42;;;;;;;27.13;14.93;;;2.50;93.50;;;;;;4934772;28;20061;-85
2020/12/08 08:54:09;;;;;;;24.20;12.75;;;2.50;93.60;;;;;;4959039;28;20042;-85
2020/12/08 08:56:34;;;;;;;25.25;14.48;;;2.60;93.40;;;;;;4932241;28;20034;-85
2020/12/08 08:59:00;;;;;;;29.02;15.27;;;2.60;93.30;;;;;;4939014;28;20042;-84
2020/12/08 09:01:25;;;;;;;21.42;13.38;;;2.70;93.50;;;;;;4931167;28;20494;-85
2020/12/08 09:03:51;;;;;;;19.02;11.32;;;2.70;93.00;;;;;;4915035;28;20133;-85
2020/12/08 09:06:17;;;;;;;19.52;11.00;;;2.70;93.00;;;;;;4931233;28;20088;-85
2020/12/08 09:08:42;;;;;;;19.85;11.15;;;2.80;93.00;;;;;;4933199;28;20069;-85
2020/12/08 09:11:08;;;;;;;15.00;9.00;;;2.80;92.90;;;;;;4948467;28;20041;-85
2020/12/08 09:13:34;;;;;;;18.42;7.55;;;2.80;92.80;;;;;;4942384;28;20591;-85
2020/12/08 09:16:00;;;;;;;13.55;8.10;;;2.80;92.70;;;;;;4938878;28;20031;-84
2020/12/08 09:18:26;;;;;;;15.05;8.15;;;2.90;92.40;;;;;;4935368;28;20324;-85
2020/12/08 09:20:52;;;;;;;13.82;7.50;;;2.90;92.50;;;;;;4914641;29;20028;-84
2020/12/08 09:23:20;;;;;;;11.80;7.55;;;3.00;92.80;;;;;;4933684;28;20118;-85
2020/12/08 09:25:46;;;;;;;14.32;7.53;;;3.00;92.40;;;;;;4961603;28;20905;-85
2020/12/08 09:28:12;;;;;;;8.32;4.90;;;3.10;92.40;;;;;;4960066;28;20152;-84
2020/12/08 09:30:39;;;;;;;8.85;5.25;;;3.10;92.20;;;;;;4944576;28;20060;-84
2020/12/08 09:33:06;;;;;;;10.00;6.10;;;3.10;91.90;;;;;;4945443;28;20038;-85
2020/12/08 09:35:31;;;;;;;10.82;6.13;;;3.20;91.90;;;;;;4947692;28;20062;-85
2020/12/08 09:37:57;;;;;;;12.35;5.72;;;3.30;91.80;;;;;;4936761;28;20419;-84
2020/12/08 09:40:23;;;;;;;10.95;6.43;;;3.30;91.70;;;;;;4946252;28;20031;-84
2020/12/08 09:42:49;;;;;;;9.93;6.20;;;3.40;91.80;;;;;;4917952;28;20470;-84
2020/12/08 09:45:14;;;;;;;8.20;5.15;;;3.40;91.70;;;;;;4932793;28;20042;-85
2020/12/08 09:47:40;;;;;;;10.90;6.30;;;3.40;92.00;;;;;;4924230;28;20122;-86
2020/12/08 09:50:07;;;;;;;7.38;4.55;;;3.50;91.80;;;;;;4916789;28;20041;-85
2020/12/08 09:52:32;;;;;;;7.80;4.23;;;3.50;91.50;;;;;;4260284;28;10000302;-84
2020/12/08 09:54:58;;;;;;;7.50;5.28;;;3.70;91.60;;;;;;4942393;28;20327;-84
2020/12/08 09:57:24;;;;;;;9.48;6.18;;;3.60;91.40;;;;;;4903528;28;20030;-84
2020/12/08 09:59:51;;;;;;;11.38;6.10;;;3.70;91.20;;;;;;4950391;28;20045;-84
2020/12/08 10:02:17;;;;;;;8.50;5.72;;;3.60;91.40;;;;;;4927388;28;20050;-84
2020/12/08 10:04:43;;;;;;;6.43;4.90;;;3.70;91.20;;;;;;4914153;28;20035;-84
2020/12/08 10:07:10;;;;;;;7.30;5.30;;;3.60;91.30;;;;;;4939427;28;20557;-84
2020/12/08 10:09:35;;;;;;;9.68;6.18;;;3.70;91.00;;;;;;4941270;28;20031;-85
2020/12/08 10:12:01;;;;;;;9.88;6.40;;;3.70;91.00;;;;;;4941178;28;20096;-84
2020/12/08 10:14:26;;;;;;;9.10;6.22;;;3.80;91.40;;;;;;4933614;28;20114;-84
2020/12/08 10:16:52;;;;;;;10.30;6.95;;;3.80;91.30;;;;;;4943588;28;20041;-84
2020/12/08 10:19:18;;;;;;;9.18;5.88;;;3.80;91.20;;;;;;4915631;28;20035;-84
2020/12/08 10:21:43;;;;;;;13.02;6.93;;;3.80;91.10;;;;;;4941878;28;20375;-84
2020/12/08 10:24:09;;;;;;;10.07;6.32;;;3.90;91.30;;;;;;4953247;28;20042;-84
2020/12/08 10:26:35;;;;;;;9.27;5.93;;;3.90;91.20;;;;;;4931505;28;20065;-84
2020/12/08 10:29:00;;;;;;;10.10;6.28;;;4.00;91.10;;;;;;4940388;28;20495;-84
2020/12/08 10:31:26;;;;;;;8.32;6.05;;;4.00;91.00;;;;;;4918022;28;20034;-84
2020/12/08 10:33:52;;;;;;;8.23;5.68;;;4.00;91.60;;;;;;4913531;28;20038;-85
2020/12/08 10:36:17;;;;;;;11.05;6.85;;;4.00;90.70;;;;;;4942983;28;20380;-85
2020/12/08 10:38:43;;;;;;;12.32;6.50;;;4.00;90.50;;;;;;4940228;28;20118;-84
2020/12/08 10:41:09;;;;;;;7.95;5.82;;;4.00;90.50;;;;;;4959460;28;20451;-84
2020/12/08 10:43:34;;;;;;;10.13;6.28;;;4.20;90.80;;;;;;4930239;28;20495;-84
2020/12/08 10:46:00;;;;;;;10.73;7.18;;;4.20;91.00;;;;;;4909901;28;20027;-83
2020/12/08 10:48:26;;;;;;;10.05;6.97;;;4.20;90.70;;;;;;4920614;28;20109;-85
2020/12/08 10:50:51;;;;;;;9.85;6.55;;;4.20;90.50;;;;;;4952893;28;20053;-84
2020/12/08 10:53:17;;;;;;;9.48;6.28;;;4.30;90.70;;;;;;4912596;28;20031;-84
2020/12/08 10:55:42;;;;;;;8.90;5.90;;;4.30;90.30;;;;;;4917475;28;20031;-84
2020/12/08 10:58:08;;;;;;;6.88;5.05;;;4.40;92.10;;;;;;4939449;28;20118;-84
2020/12/08 11:00:33;;;;;;;15.70;6.30;;;4.50;91.20;;;;;;4933074;28;20513;-84
2020/12/08 11:02:59;;;;;;;9.63;6.35;;;4.50;91.40;;;;;;4942944;28;20483;-84
2020/12/08 11:05:26;;;;;;;8.27;6.07;;;4.60;93.40;;;;;;4919147;28;20110;-84
2020/12/08 11:07:51;;;;;;;8.13;5.90;;;4.60;90.30;;;;;;4911246;28;20031;-84
2020/12/08 11:10:17;;;;;;;8.55;5.57;;;4.60;91.80;;;;;;4945710;28;20057;-84
2020/12/08 11:12:42;;;;;;;8.18;5.47;;;4.60;90.70;;;;;;4950266;28;20361;-82
2020/12/08 11:15:08;;;;;;;8.63;5.72;;;4.70;92.00;;;;;;4928423;28;20062;-84
2020/12/08 11:17:36;;;;;;;8.57;5.80;;;4.80;92.70;;;;;;4935054;28;20047;-83
2020/12/08 11:20:03;;;;;;;6.90;4.88;;;4.90;92.90;;;;;;4953970;28;20042;-83
2020/12/08 11:22:29;;;;;;;7.65;5.72;;;5.00;93.80;;;;;;4937600;28;20031;-83
2020/12/08 11:24:55;;;;;;;9.23;5.88;;;5.00;93.70;;;;;;4935692;28;20034;-84
2020/12/08 11:27:22;;;;;;;7.20;5.47;;;5.10;93.70;;;;;;4936542;28;20103;-84
2020/12/08 11:29:48;;;;;;;8.90;5.45;;;5.10;93.60;;;;;;4958845;28;20046;-84
2020/12/08 11:32:14;;;;;;;7.70;5.55;;;5.20;94.20;;;;;;4937627;28;20042;-83
2020/12/08 11:34:40;;;;;;;7.25;5.30;;;5.30;94.20;;;;;;4948504;28;20558;-83
2020/12/08 11:37:06;;;;;;;5.57;4.65;;;5.40;94.60;;;;;;4950327;28;20126;-82
2020/12/08 11:39:32;;;;;;;6.70;4.97;;;5.40;94.70;;;;;;4940243;28;20113;-83
2020/12/08 11:41:57;;;;;;;8.02;6.28;;;5.50;94.70;;;;;;4941047;28;20122;-84
2020/12/08 11:44:23;;;;;;;7.65;6.03;;;5.70;94.80;;;;;;4954583;28;20098;-83
2020/12/08 11:46:51;;;;;;;7.18;5.63;;;5.60;95.00;;;;;;4937325;28;20031;-83
2020/12/08 11:49:20;;;;;;;9.95;5.50;;;5.70;95.20;;;;;;4942484;28;20039;-83
2020/12/08 11:51:46;;;;;;;9.13;6.25;;;5.80;95.10;;;;;;4936674;28;20434;-83
2020/12/08 11:54:11;;;;;;;7.95;5.82;;;5.80;95.10;;;;;;4919203;28;20028;-83
2020/12/08 11:57:07;;;;;;;8.18;5.72;;;5.70;95.00;;;;;;4934285;28;20078;-83
2020/12/08 11:59:33;;;;;;;11.27;7.07;;;5.80;95.00;;;;;;4953007;28;20038;-83
2020/12/08 12:01:59;;;;;;;9.88;7.47;;;5.80;94.80;;;;;;4947382;28;20396;-83
2020/12/08 12:04:24;;;;;;;11.50;7.30;;;5.80;94.40;;;;;;4958901;28;20034;-83
2020/12/08 12:06:50;;;;;;;10.43;7.18;;;5.80;94.80;;;;;;4917972;28;20038;-83
2020/12/08 12:09:15;;;;;;;10.43;7.80;;;5.80;94.90;;;;;;4949664;28;20038;-83
2020/12/08 12:11:41;;;;;;;9.40;7.00;;;5.70;94.60;;;;;;4916165;28;20443;-83
2020/12/08 12:14:06;;;;;;;9.43;6.75;;;5.80;94.50;;;;;;4942793;28;20054;-83
2020/12/08 12:16:32;;;;;;;12.27;7.20;;;5.80;95.00;;;;;;4945456;28;20041;-83
2020/12/08 12:18:57;;;;;;;10.18;7.32;;;5.80;95.40;;;;;;4938232;28;20058;-83
2020/12/08 12:21:23;;;;;;;11.18;7.10;;;5.90;95.20;;;;;;4932459;28;20375;-83
2020/12/08 12:23:49;;;;;;;11.73;7.70;;;5.80;95.20;;;;;;4914306;28;20026;-83
2020/12/08 12:26:15;;;;;;;9.23;6.75;;;5.90;95.20;;;;;;4934228;28;20359;-83
2020/12/08 12:28:40;;;;;;;12.18;8.38;;;6.00;95.30;;;;;;4915473;28;20039;-83
2020/12/08 12:31:07;;;;;;;11.20;7.70;;;6.00;95.30;;;;;;4944561;28;20038;-83
2020/12/08 12:33:34;;;;;;;12.00;8.43;;;6.00;95.10;;;;;;4942916;28;20105;-83